Time;durP1;ratioP1;P1;durP2;ratioP2;P2;SDS_P1;SDS_P2;PMS_P1;PMS_P2;Temp;Humidity;BMP_temperature;BMP_pressure;BME280_temperature;BME280_humidity;BME280_pressure;Samples;Min_cycle;Max_cycle;Signal;HPM_P1;HPM_P2
2022/01/21 00:01:37;;;;;;;12.20;9.63;;;;;;;-142.02;100.00;61695.09;4992026;28;20145;-73
2022/01/21 00:04:04;;;;;;;11.80;9.90;;;;;;;-142.02;100.00;61695.09;4992694;28;20080;-72
2022/01/21 00:06:30;;;;;;;14.55;11.27;;;;;;;-142.02;100.00;61695.09;4993630;28;20580;-74
2022/01/21 00:08:56;;;;;;;19.38;13.07;;;;;;;-142.02;100.00;61695.09;4977057;28;20050;-74
2022/01/21 00:11:23;;;;;;;19.08;12.38;;;;;;;-142.02;100.00;61695.09;5009497;28;20058;-73
2022/01/21 00:13:49;;;;;;;9.68;8.18;;;;;;;-142.02;100.00;61695.09;4994016;28;20049;-73
2022/01/21 00:16:20;;;;;;;10.20;7.40;;;;;;;-142.02;100.00;61695.09;4993266;28;20073;-74
2022/01/21 00:18:59;;;;;;;10.97;8.83;;;;;;;-142.02;100.00;61695.09;4976039;28;20050;-73
2022/01/21 00:32:25;;;;;;;15.00;10.18;;;;;;;-142.02;100.00;61695.09;5006670;28;20061;-73
2022/01/21 00:34:51;;;;;;;14.25;9.70;;;;;;;-142.02;100.00;61695.09;4994129;28;20409;-73
2022/01/21 00:37:17;;;;;;;6.53;5.53;;;;;;;-142.02;100.00;61695.09;4978830;28;20046;-73
2022/01/21 00:39:45;;;;;;;11.38;8.50;;;;;;;-142.02;100.00;61695.09;5012601;28;20050;-73
2022/01/21 00:42:49;;;;;;;14.00;8.75;;;;;;;-142.02;100.00;61695.09;4995250;28;20073;-74
2022/01/21 00:45:00;;;;;;;9.75;7.63;;;;;;;-142.02;100.00;61695.09;4993454;28;20052;-72
2022/01/21 00:47:27;;;;;;;8.73;7.82;;;;;;;-142.02;100.00;61695.09;5011680;28;20113;-74
2022/01/21 00:49:53;;;;;;;10.45;7.88;;;;;;;-142.02;100.00;61695.09;4996109;28;20050;-71
2022/01/21 00:52:20;;;;;;;14.15;9.93;;;;;;;-142.02;100.00;61695.09;4995678;28;20132;-74
2022/01/21 00:54:46;;;;;;;15.23;10.60;;;;;;;-142.02;100.00;61695.09;4994979;28;20056;-75
2022/01/21 00:57:13;;;;;;;11.10;8.90;;;;;;;-142.02;100.00;61695.09;5011117;28;20052;-74
2022/01/21 00:59:39;;;;;;;17.73;12.02;;;;;;;-142.02;100.00;61695.09;5012235;28;20502;-74
2022/01/21 01:02:05;;;;;;;14.07;9.98;;;;;;;-142.02;100.00;61695.09;5012072;28;20080;-74
2022/01/21 01:04:34;;;;;;;20.48;13.82;;;;;;;-142.02;100.00;61695.09;5012456;28;20501;-73
2022/01/21 01:07:01;;;;;;;17.77;12.23;;;;;;;-142.02;100.00;61695.09;5011678;28;20049;-73
2022/01/21 01:09:27;;;;;;;24.77;12.93;;;;;;;-142.02;100.00;61695.09;4994396;28;20184;-73
2022/01/21 01:20:00;;;;;;;11.90;10.00;;;;;;;-142.02;100.00;61695.09;4994546;28;20054;-74
2022/01/21 01:28:02;;;;;;;13.02;10.15;;;;;;;-142.02;100.00;61695.09;5010665;28;20057;-74
2022/01/21 01:30:30;;;;;;;11.13;9.98;;;;;;;-142.02;100.00;61695.09;4993913;28;20046;-74
2022/01/21 01:32:58;;;;;;;14.77;9.50;;;;;;;-142.02;100.00;61695.09;4993798;28;20104;-73
2022/01/21 01:35:25;;;;;;;13.18;9.27;;;;;;;-142.02;100.00;61695.09;5017124;28;20115;-72
2022/01/21 01:40:46;;;;;;;12.63;8.85;;;;;;;-142.02;100.00;61695.09;5017399;28;20049;-74
2022/01/21 01:51:12;;;;;;;19.50;10.57;;;;;;;-142.02;100.00;61695.09;4994292;28;20053;-72
2022/01/21 01:53:42;;;;;;;16.52;11.77;;;;;;;-142.02;100.00;61695.09;5011954;28;20050;-74
2022/01/21 01:56:18;;;;;;;10.00;8.82;;;;;;;-142.02;100.00;61695.09;5011225;28;20168;-74
2022/01/21 01:58:44;;;;;;;14.82;9.38;;;;;;;-142.02;100.00;61695.09;5011009;28;20193;-72
2022/01/21 02:01:10;;;;;;;17.70;11.93;;;;;;;-142.02;100.00;61695.09;4994214;28;20062;-73
2022/01/21 02:03:36;;;;;;;13.63;10.75;;;;;;;-142.02;100.00;61695.09;4978478;28;20049;-73
2022/01/21 02:06:03;;;;;;;13.68;9.80;;;;;;;-142.02;100.00;61695.09;4994250;28;20062;-74
2022/01/21 02:08:29;;;;;;;13.57;9.27;;;;;;;-142.02;100.00;61695.09;5012058;28;20509;-74
2022/01/21 02:10:56;;;;;;;15.48;11.02;;;;;;;-142.02;100.00;61695.09;4979290;28;20077;-73
2022/01/21 02:13:26;;;;;;;13.45;9.25;;;;;;;-142.02;100.00;61695.09;4995467;28;20053;-74
2022/01/21 02:16:10;;;;;;;12.23;8.95;;;;;;;-142.02;100.00;61695.09;5012026;28;20136;-73
2022/01/21 02:24:01;;;;;;;16.35;10.52;;;;;;;-142.02;100.00;61695.09;4978470;28;20049;-74
2022/01/21 02:26:28;;;;;;;14.80;10.98;;;;;;;-142.02;100.00;61695.09;4994763;28;20053;-74
2022/01/21 02:28:55;;;;;;;18.65;12.77;;;;;;;-142.02;100.00;61695.09;4995031;28;20058;-73
2022/01/21 02:31:21;;;;;;;9.88;8.93;;;;;;;-142.02;100.00;61695.09;4963174;28;20049;-75
2022/01/21 02:33:47;;;;;;;15.15;11.25;;;;;;;-142.02;100.00;61695.09;4980023;28;20496;-74
2022/01/21 02:36:13;;;;;;;27.60;16.90;;;;;;;-142.02;100.00;61695.09;4998565;28;20053;-74
2022/01/21 02:38:40;;;;;;;17.73;12.20;;;;;;;-142.02;100.00;61695.09;4997952;28;20046;-74
2022/01/21 02:41:06;;;;;;;19.88;13.85;;;;;;;-142.02;100.00;61695.09;4965384;28;20499;-75
2022/01/21 02:43:33;;;;;;;20.52;13.05;;;;;;;-142.02;100.00;61695.09;4997750;28;20076;-73
2022/01/21 02:46:04;;;;;;;13.43;10.38;;;;;;;-142.02;100.00;61695.09;4998139;28;20678;-73
2022/01/21 02:48:35;;;;;;;11.20;7.90;;;;;;;-142.02;100.00;61695.09;4976182;28;20045;-74
2022/01/21 02:51:01;;;;;;;15.00;9.67;;;;;;;-142.02;100.00;61695.09;4997313;28;20513;-73
2022/01/21 02:54:04;;;;;;;17.08;10.45;;;;;;;-142.02;100.00;61695.09;4997949;28;20050;-74
2022/01/21 02:56:27;;;;;;;24.30;13.90;;;;;;;-142.02;100.00;61695.09;4981999;28;20041;-74
2022/01/21 02:58:53;;;;;;;20.08;12.80;;;;;;;-142.02;100.00;61695.09;4986239;28;20060;-74
2022/01/21 03:01:19;;;;;;;11.70;9.07;;;;;;;-142.02;100.00;61695.09;5009580;28;20475;-73
2022/01/21 03:03:46;;;;;;;13.95;11.15;;;;;;;-142.02;100.00;61695.09;4997218;28;20054;-73
2022/01/21 03:06:15;;;;;;;25.85;15.00;;;;;;;-142.02;100.00;61695.09;4997321;28;20395;-74
2022/01/21 03:08:42;;;;;;;13.82;10.63;;;;;;;-142.02;100.00;61695.09;4996781;28;20050;-73
2022/01/21 03:11:08;;;;;;;12.82;8.95;;;;;;;-142.02;100.00;61695.09;5013939;28;20038;-73
2022/01/21 03:13:34;;;;;;;16.75;12.13;;;;;;;-142.02;100.00;61695.09;5014882;28;20108;-74
2022/01/21 03:16:00;;;;;;;13.00;8.98;;;;;;;-142.02;100.00;61695.09;5009155;28;20067;-73
2022/01/21 03:18:27;;;;;;;11.80;7.90;;;;;;;-142.02;100.00;61695.09;4996741;28;20054;-74
2022/01/21 03:20:57;;;;;;;19.77;12.02;;;;;;;-142.02;100.00;61695.09;4997611;28;20076;-72
2022/01/21 03:23:25;;;;;;;12.45;9.23;;;;;;;-142.02;100.00;61695.09;4997636;28;20064;-72
2022/01/21 03:25:51;;;;;;;17.77;12.60;;;;;;;-142.02;100.00;61695.09;4996505;28;20054;-73
2022/01/21 03:28:29;;;;;;;16.92;11.25;;;;;;;-142.02;100.00;61695.09;4997048;28;20049;-71
2022/01/21 03:30:59;;;;;;;22.92;14.75;;;;;;;-142.02;100.00;61695.09;4981366;28;20050;-73
2022/01/21 03:33:26;;;;;;;18.35;12.80;;;;;;;-142.02;100.00;61695.09;4997506;28;20048;-72
2022/01/21 03:35:54;;;;;;;17.45;10.52;;;;;;;-142.02;100.00;61695.09;5014217;28;20049;-74
2022/01/21 03:38:24;;;;;;;26.67;15.68;;;;;;;-142.02;100.00;61695.09;5013354;28;20058;-71
2022/01/21 03:40:50;;;;;;;23.50;13.75;;;;;;;-142.02;100.00;61695.09;4996602;28;20608;-72
2022/01/21 03:43:17;;;;;;;18.10;12.20;;;;;;;-142.02;100.00;61695.09;4996598;28;20057;-73
2022/01/21 03:45:42;;;;;;;26.95;19.10;;;;;;;-142.02;100.00;61695.09;4996243;28;20438;-70
2022/01/21 03:48:09;;;;;;;16.40;10.95;;;;;;;-142.02;100.00;61695.09;5013566;28;20054;-72
2022/01/21 03:50:35;;;;;;;19.13;13.07;;;;;;;-142.02;100.00;61695.09;4965745;28;20056;-72
2022/01/21 03:53:02;;;;;;;18.98;12.52;;;;;;;-142.02;100.00;61695.09;5013756;28;20061;-74
2022/01/21 03:55:30;;;;;;;25.27;13.27;;;;;;;-142.02;100.00;61695.09;5014185;28;20819;-73
2022/01/21 03:57:56;;;;;;;25.48;17.58;;;;;;;-142.02;100.00;61695.09;4996523;28;20072;-71
2022/01/21 04:00:24;;;;;;;28.30;14.95;;;;;;;-142.02;100.00;61695.09;5012979;28;20049;-73
2022/01/21 04:02:50;;;;;;;25.88;14.65;;;;;;;-142.02;100.00;61695.09;5012748;28;20509;-73
2022/01/21 04:05:20;;;;;;;20.40;15.50;;;;;;;-142.02;100.00;61695.09;4980881;28;20092;-74
2022/01/21 04:07:46;;;;;;;30.80;16.38;;;;;;;-142.02;100.00;61695.09;4980986;28;20496;-73
2022/01/21 04:10:12;;;;;;;18.25;13.30;;;;;;;-142.02;100.00;61695.09;5009753;28;20058;-73
2022/01/21 04:12:39;;;;;;;18.02;12.07;;;;;;;-142.02;100.00;61695.09;4977078;28;20514;-73
2022/01/21 04:15:05;;;;;;;21.05;13.38;;;;;;;-142.02;100.00;61695.09;5009739;28;20076;-74
2022/01/21 04:17:31;;;;;;;25.38;14.13;;;;;;;-142.02;100.00;61695.09;5009735;28;20065;-73
2022/01/21 04:19:58;;;;;;;35.03;18.48;;;;;;;-142.02;100.00;61695.09;5008608;28;20149;-73
2022/01/21 04:22:24;;;;;;;17.92;11.55;;;;;;;-142.02;100.00;61695.09;5009433;28;20054;-73
2022/01/21 04:24:50;;;;;;;14.45;9.32;;;;;;;-142.02;100.00;61695.09;4992707;28;20054;-72
2022/01/21 04:27:17;;;;;;;15.65;10.52;;;;;;;-142.02;100.00;61695.09;5009506;28;20054;-73
2022/01/21 04:29:44;;;;;;;16.58;11.98;;;;;;;-142.02;100.00;61695.09;4961143;28;20117;-75
2022/01/21 04:32:12;;;;;;;23.52;15.00;;;;;;;-142.02;100.00;61695.09;4977313;28;20080;-73
2022/01/21 04:34:38;;;;;;;29.35;19.33;;;;;;;-142.02;100.00;61695.09;4994313;28;21027;-73
2022/01/21 04:37:11;;;;;;;32.92;16.60;;;;;;;-142.02;100.00;61695.09;4979428;28;20049;-73
2022/01/21 04:39:55;;;;;;;15.15;11.02;;;;;;;-142.02;100.00;61695.09;4977834;28;20054;-73
2022/01/21 04:47:35;;;;;;;34.58;15.93;;;;;;;-142.02;100.00;61695.09;4994057;28;20058;-74
2022/01/21 04:50:08;;;;;;;28.52;15.02;;;;;;;-142.02;100.00;61695.09;4976069;28;20614;-72
2022/01/21 04:52:35;;;;;;;29.23;13.73;;;;;;;-142.02;100.00;61695.09;4976439;28;20054;-73
2022/01/21 04:55:14;;;;;;;19.77;12.07;;;;;;;-142.02;100.00;61695.09;4988431;28;20045;-73
2022/01/21 04:57:41;;;;;;;31.45;14.00;;;;;;;-142.02;100.00;61695.09;5007093;28;20054;-73
2022/01/21 05:00:08;;;;;;;19.95;13.52;;;;;;;-142.02;100.00;61695.09;4994898;28;20050;-73
2022/01/21 05:02:35;;;;;;;19.35;10.68;;;;;;;-142.02;100.00;61695.09;4974690;28;20053;-73
2022/01/21 05:05:03;;;;;;;19.95;12.15;;;;;;;-142.02;100.00;61695.09;5014099;28;20053;-73
2022/01/21 05:07:34;;;;;;;22.20;13.50;;;;;;;-142.02;100.00;61695.09;5032045;28;20055;-73
2022/01/21 05:10:03;;;;;;;24.17;12.88;;;;;;;-142.02;100.00;61695.09;4996626;28;20091;-72
2022/01/21 05:12:29;;;;;;;21.05;12.30;;;;;;;-142.02;100.00;61695.09;4995880;28;20061;-73
2022/01/21 05:17:26;;;;;;;21.98;14.65;;;;;;;-142.02;100.00;61695.09;4995890;28;20149;-74
2022/01/21 05:19:52;;;;;;;33.20;15.70;;;;;;;-142.02;100.00;61695.09;4995613;28;20054;-74
2022/01/21 05:22:44;;;;;;;30.58;17.27;;;;;;;-142.02;100.00;61695.09;4995739;28;20054;-73
2022/01/21 05:25:16;;;;;;;28.23;15.13;;;;;;;-142.02;100.00;61695.09;4994979;28;20136;-73
2022/01/21 05:27:50;;;;;;;33.40;18.77;;;;;;;-142.02;100.00;61695.09;5002761;28;20049;-73
2022/01/21 05:30:17;;;;;;;30.75;15.43;;;;;;;-142.02;100.00;61695.09;4998011;28;20053;-74
2022/01/21 05:33:07;;;;;;;25.07;14.17;;;;;;;-142.02;100.00;61695.09;5028996;28;20049;-74
2022/01/21 05:35:57;;;;;;;25.27;15.65;;;;;;;-142.02;100.00;61695.09;4968100;28;20289;-74
2022/01/21 05:38:46;;;;;;;33.75;19.73;;;;;;;-142.02;100.00;61695.09;4999216;28;20057;-74
2022/01/21 05:41:27;;;;;;;25.60;15.70;;;;;;;-142.02;100.00;61695.09;4982361;28;20049;-73
2022/01/21 05:47:15;;;;;;;36.72;17.52;;;;;;;-142.02;100.00;61695.09;4963083;28;20069;-73
2022/01/21 05:50:04;;;;;;;19.67;12.98;;;;;;;-142.02;100.00;61695.09;4994776;28;20079;-75
2022/01/21 05:52:50;;;;;;;40.25;21.77;;;;;;;-142.02;100.00;61695.09;5004214;28;20081;-72
2022/01/21 05:55:47;;;;;;;33.88;20.30;;;;;;;-142.02;100.00;61695.09;5002005;28;20049;-72
2022/01/21 05:58:33;;;;;;;25.92;15.35;;;;;;;-142.02;100.00;61695.09;4991930;28;20572;-73
2022/01/21 06:01:00;;;;;;;38.10;20.83;;;;;;;-142.02;100.00;61695.09;4959858;28;20042;-73
2022/01/21 06:03:26;;;;;;;27.40;17.17;;;;;;;-142.02;100.00;61695.09;4995987;28;20677;-74
2022/01/21 06:05:52;;;;;;;40.35;22.38;;;;;;;-142.02;100.00;61695.09;4977964;28;20440;-72
2022/01/21 06:08:18;;;;;;;26.23;16.45;;;;;;;-142.02;100.00;61695.09;5002402;28;20133;-72
2022/01/21 06:10:45;;;;;;;41.70;20.48;;;;;;;-142.02;100.00;61695.09;5001522;28;20042;-72
2022/01/21 06:13:15;;;;;;;21.50;14.80;;;;;;;-142.02;100.00;61695.09;4984376;28;20388;-73
2022/01/21 06:15:41;;;;;;;29.75;15.65;;;;;;;-142.02;100.00;61695.09;5004648;28;20034;-73
2022/01/21 06:18:07;;;;;;;28.73;17.80;;;;;;;-142.02;100.00;61695.09;4984159;28;20677;-73
2022/01/21 06:20:34;;;;;;;26.73;18.27;;;;;;;-142.02;100.00;61695.09;5003552;28;20047;-74
2022/01/21 06:23:00;;;;;;;33.67;20.30;;;;;;;-142.02;100.00;61695.09;4983247;28;20042;-72
2022/01/21 06:25:26;;;;;;;23.83;15.20;;;;;;;-142.02;100.00;61695.09;4987871;28;20056;-72
2022/01/21 06:27:52;;;;;;;26.65;15.50;;;;;;;-142.02;100.00;61695.09;5011103;28;20120;-72
2022/01/21 06:30:18;;;;;;;23.90;14.98;;;;;;;-142.02;100.00;61695.09;5001779;28;20057;-72
2022/01/21 06:32:44;;;;;;;28.50;16.98;;;;;;;-142.02;100.00;61695.09;5000552;28;20054;-73
2022/01/21 06:35:10;;;;;;;27.63;17.83;;;;;;;-142.02;100.00;61695.09;4985883;28;20413;-73
2022/01/21 06:37:36;;;;;;;20.85;13.13;;;;;;;-142.02;100.00;61695.09;4984870;28;20061;-73
2022/01/21 06:40:06;;;;;;;25.08;14.77;;;;;;;-142.02;100.00;61695.09;5002385;28;20046;-73
2022/01/21 06:42:33;;;;;;;30.65;17.27;;;;;;;-142.02;100.00;61695.09;5002431;28;20593;-74
2022/01/21 06:45:00;;;;;;;29.63;15.13;;;;;;;-142.02;100.00;61695.09;4979789;28;20069;-72
2022/01/21 06:47:29;;;;;;;27.73;17.15;;;;;;;-142.02;100.00;61695.09;5008842;28;20137;-72
2022/01/21 06:49:59;;;;;;;27.67;18.52;;;;;;;-142.02;100.00;61695.09;4988165;28;20084;-73
2022/01/21 06:52:28;;;;;;;22.63;15.73;;;;;;;-142.02;100.00;61695.09;4989170;28;20138;-72
2022/01/21 06:54:54;;;;;;;24.30;14.95;;;;;;;-142.02;100.00;61695.09;5006643;28;20033;-72
2022/01/21 06:57:20;;;;;;;29.77;18.70;;;;;;;-142.02;100.00;61695.09;5006040;28;20128;-73
2022/01/21 06:59:47;;;;;;;27.38;18.42;;;;;;;-142.02;100.00;61695.09;4967915;28;20489;-73
2022/01/21 07:02:14;;;;;;;29.80;18.55;;;;;;;-142.02;100.00;61695.09;4985412;28;20046;-72
2022/01/21 07:04:41;;;;;;;29.08;20.58;;;;;;;-142.02;100.00;61695.09;5002778;28;20054;-72
2022/01/21 07:07:07;;;;;;;29.70;18.73;;;;;;;-142.02;100.00;61695.09;4984957;28;20433;-72
2022/01/21 07:09:33;;;;;;;17.63;13.57;;;;;;;-142.02;100.00;61695.09;4992932;28;20053;-74
2022/01/21 07:11:59;;;;;;;27.13;16.55;;;;;;;-142.02;100.00;61695.09;4988888;28;20041;-75
2022/01/21 07:14:25;;;;;;;31.17;19.50;;;;;;;-142.02;100.00;61695.09;4986420;28;20043;-72
2022/01/21 07:16:50;;;;;;;31.80;18.63;;;;;;;-142.02;100.00;61695.09;5003875;28;20572;-73
2022/01/21 07:19:20;;;;;;;23.30;15.60;;;;;;;-142.02;100.00;61695.09;5000739;28;20053;-73
2022/01/21 07:21:46;;;;;;;20.45;14.52;;;;;;;-142.02;100.00;61695.09;5001266;28;20062;-72
2022/01/21 07:24:12;;;;;;;28.83;17.52;;;;;;;-142.02;100.00;61695.09;4982471;28;20045;-72
2022/01/21 07:26:38;;;;;;;24.75;15.07;;;;;;;-142.02;100.00;61695.09;5005792;28;20065;-73
2022/01/21 07:29:04;;;;;;;21.67;13.68;;;;;;;-142.02;100.00;61695.09;4988798;28;20038;-70
2022/01/21 07:31:30;;;;;;;17.25;13.85;;;;;;;-142.02;100.00;61695.09;5004044;28;20060;-73
2022/01/21 07:33:58;;;;;;;21.38;13.88;;;;;;;-142.02;100.00;61695.09;5003875;28;20038;-72
2022/01/21 07:36:24;;;;;;;20.85;16.00;;;;;;;-142.02;100.00;61695.09;4985592;28;20058;-73
2022/01/21 07:38:50;;;;;;;22.67;16.00;;;;;;;-142.02;100.00;61695.09;5004361;28;20090;-72
2022/01/21 07:41:16;;;;;;;23.67;15.77;;;;;;;-142.02;100.00;61695.09;5006826;28;20046;-72
2022/01/21 07:43:42;;;;;;;17.52;12.60;;;;;;;-142.02;100.00;61695.09;5004513;28;20042;-74
2022/01/21 07:46:08;;;;;;;18.13;12.20;;;;;;;-142.02;100.00;61695.09;5004513;28;20161;-72
2022/01/21 07:48:34;;;;;;;32.67;19.75;;;;;;;-142.02;100.00;61695.09;4970898;28;20050;-74
2022/01/21 07:51:00;;;;;;;19.13;13.10;;;;;;;-142.02;100.00;61695.09;4984899;28;20067;-73
2022/01/21 07:53:26;;;;;;;18.02;10.45;;;;;;;-142.02;100.00;61695.09;5006314;28;20050;-71
2022/01/21 07:55:53;;;;;;;22.58;16.30;;;;;;;-142.02;100.00;61695.09;5004124;28;20054;-72
2022/01/21 07:58:19;;;;;;;27.38;16.90;;;;;;;-142.02;100.00;61695.09;4989107;28;20520;-72
2022/01/21 08:00:45;;;;;;;17.60;11.15;;;;;;;-142.02;100.00;61695.09;4985286;28;20078;-71
2022/01/21 08:03:12;;;;;;;25.75;16.10;;;;;;;-142.02;100.00;61695.09;4977826;28;20050;-72
2022/01/21 08:05:38;;;;;;;18.08;13.18;;;;;;;-142.02;100.00;61695.09;4988094;28;20082;-71
2022/01/21 08:08:04;;;;;;;19.15;12.85;;;;;;;-142.02;100.00;61695.09;5004130;28;20046;-73
2022/01/21 08:10:33;;;;;;;14.60;11.73;;;;;;;-142.02;100.00;61695.09;4986813;28;20046;-72
2022/01/21 08:13:00;;;;;;;18.80;13.35;;;;;;;-142.02;100.00;61695.09;5004505;28;20125;-73
2022/01/21 08:15:27;;;;;;;24.25;15.52;;;;;;;-142.02;100.00;61695.09;5005076;28;20050;-71
2022/01/21 08:17:55;;;;;;;17.73;12.02;;;;;;;-142.02;100.00;61695.09;5002359;28;20069;-72
2022/01/21 08:20:21;;;;;;;19.08;11.77;;;;;;;-142.02;100.00;61695.09;5000576;28;20058;-75
2022/01/21 08:22:47;;;;;;;15.02;10.05;;;;;;;-142.02;100.00;61695.09;4986933;28;20038;-73
2022/01/21 08:25:13;;;;;;;20.10;14.38;;;;;;;-142.02;100.00;61695.09;4969570;28;20049;-73
2022/01/21 08:27:40;;;;;;;16.77;10.80;;;;;;;-142.02;100.00;61695.09;5003682;28;20046;-73
2022/01/21 08:30:06;;;;;;;15.68;10.63;;;;;;;-142.02;100.00;61695.09;4987616;28;20116;-73
2022/01/21 08:32:32;;;;;;;12.40;11.15;;;;;;;-142.02;100.00;61695.09;4999287;28;20054;-72
2022/01/21 08:34:59;;;;;;;14.93;13.35;;;;;;;-142.02;100.00;61695.09;5002723;28;20046;-71
2022/01/21 08:37:24;;;;;;;15.93;11.88;;;;;;;-142.02;100.00;61695.09;5000706;28;20082;-72
2022/01/21 08:39:51;;;;;;;15.32;10.93;;;;;;;-142.02;100.00;61695.09;4993877;28;20113;-74
2022/01/21 08:42:17;;;;;;;10.80;9.18;;;;;;;-142.02;100.00;61695.09;5002414;28;20637;-72
2022/01/21 08:44:43;;;;;;;10.32;8.13;;;;;;;-142.02;100.00;61695.09;4999993;28;20097;-72
2022/01/21 08:47:09;;;;;;;13.30;11.90;;;;;;;-142.02;100.00;61695.09;4982714;28;20043;-73
2022/01/21 08:49:36;;;;;;;16.45;11.63;;;;;;;-142.02;100.00;61695.09;4983980;28;20053;-72
2022/01/21 08:52:02;;;;;;;16.08;11.52;;;;;;;-142.02;100.00;61695.09;5004016;28;20073;-76
2022/01/21 08:54:29;;;;;;;15.05;11.02;;;;;;;-142.02;100.00;61695.09;5000378;28;20108;-72
2022/01/21 08:56:56;;;;;;;17.65;11.00;;;;;;;-142.02;100.00;61695.09;5000205;28;20057;-70
2022/01/21 08:59:22;;;;;;;21.73;11.60;;;;;;;-142.02;100.00;61695.09;5000313;28;20054;-71
2022/01/21 09:01:51;;;;;;;11.20;8.27;;;;;;;-142.02;100.00;61695.09;5000736;28;20054;-72
2022/01/21 09:04:17;;;;;;;10.27;8.65;;;;;;;-142.02;100.00;61695.09;4982485;28;20037;-72
2022/01/21 09:06:43;;;;;;;13.82;9.32;;;;;;;-142.02;100.00;61695.09;4967676;28;20629;-71
2022/01/21 09:09:09;;;;;;;13.82;10.98;;;;;;;-142.02;100.00;61695.09;5000790;28;20132;-71
2022/01/21 09:11:36;;;;;;;15.60;10.30;;;;;;;-142.02;100.00;61695.09;5001135;28;20111;-72
2022/01/21 09:14:03;;;;;;;17.30;11.48;;;;;;;-142.02;100.00;61695.09;4983850;28;20042;-71
2022/01/21 09:16:29;;;;;;;9.75;7.22;;;;;;;-142.02;100.00;61695.09;4985405;28;20053;-73
2022/01/21 09:18:57;;;;;;;11.02;8.35;;;;;;;-142.02;100.00;61695.09;4998417;28;20054;-72
2022/01/21 09:21:28;;;;;;;13.05;10.60;;;;;;;-142.02;100.00;61695.09;4985459;28;20089;-71
2022/01/21 09:23:55;;;;;;;15.10;11.27;;;;;;;-142.02;100.00;61695.09;4967040;28;20050;-72
2022/01/21 09:26:22;;;;;;;22.90;12.02;;;;;;;-142.02;100.00;61695.09;4985900;28;20057;-72
2022/01/21 09:28:49;;;;;;;13.63;9.02;;;;;;;-142.02;100.00;61695.09;4982080;28;20054;-71
2022/01/21 09:31:15;;;;;;;18.38;13.02;;;;;;;-142.02;100.00;61695.09;5001121;28;20053;-72
2022/01/21 09:33:41;;;;;;;18.08;11.07;;;;;;;-142.02;100.00;61695.09;4984840;28;20074;-72
2022/01/21 09:36:08;;;;;;;15.13;11.02;;;;;;;-142.02;100.00;61695.09;4972770;28;20050;-72
2022/01/21 09:38:34;;;;;;;10.77;9.68;;;;;;;-142.02;100.00;61695.09;5012620;28;20049;-72
2022/01/21 09:41:02;;;;;;;20.67;8.15;;;;;;;-142.02;100.00;61695.09;5001344;28;20050;-71
2022/01/21 09:43:33;;;;;;;11.35;9.73;;;;;;;-142.02;100.00;61695.09;4967999;28;20069;-72
2022/01/21 09:45:59;;;;;;;21.23;10.67;;;;;;;-142.02;100.00;61695.09;4997988;28;20106;-72
2022/01/21 09:48:29;;;;;;;10.73;8.45;;;;;;;-142.02;100.00;61695.09;4982789;28;20293;-72
2022/01/21 09:50:59;;;;;;;14.05;8.57;;;;;;;-142.02;100.00;61695.09;4991844;28;20099;-72
2022/01/21 09:53:33;;;;;;;8.77;7.68;;;;;;;-142.02;100.00;61695.09;5001037;28;20053;-72
2022/01/21 09:55:59;;;;;;;12.65;9.02;;;;;;;-142.02;100.00;61695.09;4989009;28;20049;-72
2022/01/21 09:58:27;;;;;;;12.68;8.98;;;;;;;-142.02;100.00;61695.09;4991841;28;20072;-72
2022/01/21 10:00:54;;;;;;;17.92;11.40;;;;;;;-142.02;100.00;61695.09;5004179;28;20107;-72
2022/01/21 10:03:22;;;;;;;21.20;11.70;;;;;;;-142.02;100.00;61695.09;4984524;28;20042;-72
2022/01/21 10:05:49;;;;;;;9.77;8.23;;;;;;;-142.02;100.00;61695.09;5001490;28;20084;-73
2022/01/21 10:08:16;;;;;;;14.20;7.15;;;;;;;-142.02;100.00;61695.09;4999555;28;20050;-73
2022/01/21 10:10:42;;;;;;;9.75;7.88;;;;;;;-142.02;100.00;61695.09;5005019;28;20136;-73
2022/01/21 10:13:12;;;;;;;15.02;8.35;;;;;;;-142.02;100.00;61695.09;5007959;28;20056;-72
2022/01/21 10:15:37;;;;;;;13.73;9.65;;;;;;;-142.02;100.00;61695.09;5007989;28;20054;-73
2022/01/21 10:18:06;;;;;;;17.00;9.35;;;;;;;-142.02;100.00;61695.09;5002018;28;20111;-72
2022/01/21 10:20:32;;;;;;;12.95;10.73;;;;;;;-142.02;100.00;61695.09;5006808;28;20653;-72
2022/01/21 10:23:02;;;;;;;11.18;8.93;;;;;;;-142.02;100.00;61695.09;5000473;28;20047;-73
2022/01/21 10:25:29;;;;;;;10.70;6.90;;;;;;;-142.02;100.00;61695.09;5000522;28;20054;-73
2022/01/21 10:28:19;;;;;;;14.25;8.88;;;;;;;-142.02;100.00;61695.09;4987733;28;20536;-73
2022/01/21 10:30:46;;;;;;;12.82;8.27;;;;;;;-142.02;100.00;61695.09;5000053;28;20130;-72
2022/01/21 10:33:23;;;;;;;20.05;10.55;;;;;;;-142.02;100.00;61695.09;5002577;28;20104;-73
2022/01/21 10:35:51;;;;;;;10.50;7.63;;;;;;;-142.02;100.00;61695.09;4967974;28;20066;-72
2022/01/21 10:38:28;;;;;;;15.93;8.80;;;;;;;-142.02;100.00;61695.09;5003235;28;20038;-72
2022/01/21 10:41:07;;;;;;;12.65;9.57;;;;;;;-142.02;100.00;61695.09;4996911;28;20146;-71
2022/01/21 10:43:33;;;;;;;7.65;6.88;;;;;;;-142.02;100.00;61695.09;4983759;28;20047;-72
2022/01/21 10:45:59;;;;;;;11.65;8.02;;;;;;;-142.02;100.00;61695.09;4996371;28;20110;-73
2022/01/21 10:48:29;;;;;;;14.05;10.43;;;;;;;-142.02;100.00;61695.09;4972625;28;20060;-72
2022/01/21 10:51:18;;;;;;;14.00;10.45;;;;;;;-142.02;100.00;61695.09;4984088;28;20146;-72
2022/01/21 10:53:45;;;;;;;20.50;14.93;;;;;;;-142.02;100.00;61695.09;4984211;28;20046;-72
2022/01/21 10:56:17;;;;;;;11.68;10.02;;;;;;;-142.02;100.00;61695.09;4992424;28;20106;-73
2022/01/21 10:58:50;;;;;;;23.20;10.43;;;;;;;-142.02;100.00;61695.09;5002697;28;20532;-72
2022/01/21 11:01:21;;;;;;;14.88;11.63;;;;;;;-142.02;100.00;61695.09;4996830;28;20501;-72
2022/01/21 11:04:11;;;;;;;13.38;8.55;;;;;;;-142.02;100.00;61695.09;5001945;28;20054;-75
2022/01/21 11:06:50;;;;;;;8.05;7.35;;;;;;;-142.02;100.00;61695.09;5003265;28;21501;-72
2022/01/21 11:09:28;;;;;;;13.43;8.95;;;;;;;-142.02;100.00;61695.09;4970604;28;20055;-72
2022/01/21 11:12:16;;;;;;;9.63;7.07;;;;;;;-142.02;100.00;61695.09;5001226;28;20053;-72
2022/01/21 11:15:02;;;;;;;13.75;10.05;;;;;;;-142.02;100.00;61695.09;5005481;28;20651;-71
2022/01/21 11:17:29;;;;;;;13.57;8.23;;;;;;;-142.02;100.00;61695.09;5003465;28;20061;-73
2022/01/21 11:20:18;;;;;;;12.98;7.38;;;;;;;-142.02;100.00;61695.09;4986979;28;20057;-71
2022/01/21 11:22:58;;;;;;;14.45;9.20;;;;;;;-142.02;100.00;61695.09;4976648;28;20043;-72
2022/01/21 11:25:43;;;;;;;7.68;6.80;;;;;;;-142.02;100.00;61695.09;4988601;28;20050;-72
2022/01/21 11:28:09;;;;;;;17.10;10.05;;;;;;;-142.02;100.00;61695.09;4988038;28;20039;-72
2022/01/21 11:30:36;;;;;;;15.98;11.45;;;;;;;-142.02;100.00;61695.09;5001761;28;20148;-72
2022/01/21 11:33:02;;;;;;;15.82;12.05;;;;;;;-142.02;100.00;61695.09;5003919;28;20046;-71
2022/01/21 11:35:28;;;;;;;18.60;9.98;;;;;;;-142.02;100.00;61695.09;5000977;28;20076;-71
2022/01/21 11:37:54;;;;;;;14.30;10.77;;;;;;;-142.02;100.00;61695.09;4999212;28;20081;-72
2022/01/21 11:40:21;;;;;;;10.02;7.80;;;;;;;-142.02;100.00;61695.09;4984836;28;20505;-71
2022/01/21 11:42:47;;;;;;;18.55;11.13;;;;;;;-142.02;100.00;61695.09;5004168;28;20069;-70
2022/01/21 11:50:46;;;;;;;10.63;9.55;;;;;;;-142.02;100.00;61695.09;4997286;28;20133;-72
2022/01/21 11:53:13;;;;;;;15.52;10.52;;;;;;;-142.02;100.00;61695.09;4984261;28;20495;-72
2022/01/21 11:55:47;;;;;;;11.70;8.43;;;;;;;-142.02;100.00;61695.09;4973305;28;20050;-73
2022/01/21 11:58:18;;;;;;;9.55;8.30;;;;;;;-142.02;100.00;61695.09;4987476;28;20042;-73
2022/01/21 12:00:47;;;;;;;19.27;10.57;;;;;;;-142.02;100.00;61695.09;4998030;28;20101;-72
2022/01/21 12:03:15;;;;;;;28.45;15.02;;;;;;;-142.02;100.00;61695.09;4984843;28;20191;-72